This is the latest recevied weather packets stored in our database for station/object N3OZD-10. If no packets are shown the sender has not sent any weather packets the latest 1 day(s).
| Time | Temp. | Humidity | Pressure | Rain* | Wind** | Luminosity | Snow |
|---|---|---|---|---|---|---|---|
| 1778098042 | 20.56° C | 74% | 1007 hPa | 0 mm | - | - | - |
| 1778097743 | 20.56° C | 74% | 1007.1 hPa | 0 mm | - | - | - |
| 1778096542 | 20° C | 74% | 1007.1 hPa | 0 mm | - | - | - |
| 1778095342 | 20° C | 76% | 1007.2 hPa | 0 mm | - | - | - |
| 1778095043 | 20° C | 75% | 1007.4 hPa | 0 mm | - | - | - |
| 1778093842 | 19.44° C | 79% | 1007.9 hPa | 0 mm | - | - | - |
| 1778093543 | 18.89° C | 79% | 1007.9 hPa | 0 mm | - | - | - |
| 1778093244 | 18.89° C | 80% | 1007.9 hPa | 0 mm | - | - | - |
| 1778092042 | 18.33° C | 81% | 1007.9 hPa | 0 mm | - | - | - |
| 1778091742 | 18.33° C | 83% | 1007.7 hPa | 0 mm | - | - | - |
| 1778091442 | 18.33° C | 83% | 1008 hPa | 0 mm | - | - | - |
| 1778088742 | 16.67° C | 93% | 1008.2 hPa | 0 mm | - | - | - |
| 1778086342 | 16.11° C | 96% | 1008.4 hPa | 0 mm | - | - | - |
| 1778086044 | 16.11° C | 96% | 1008.6 hPa | 0 mm | - | - | - |
| 1778085744 | 16.11° C | 96% | 1008.5 hPa | 0 mm | - | - | - |
| 1778084242 | 16.11° C | 97% | 1008.6 hPa | 0.25 mm | - | - | - |
| 1778082444 | 16.11° C | 96% | 1008.7 hPa | 1.27 mm | - | - | - |
| 1778080346 | 16.11° C | 95% | 1009.4 hPa | 1.78 mm | - | - | - |
| 1778079142 | 16.11° C | 95% | 1009.5 hPa | 2.03 mm | - | - | - |
| 1778077643 | 16.11° C | 94% | 1009.1 hPa | 2.29 mm | - | - | - |
| 1778077042 | 16.67° C | 93% | 1009.2 hPa | 1.78 mm | - | - | - |
| 1778075546 | 16.67° C | 88% | 1009.8 hPa | 1.02 mm | - | - | - |
| 1778072543 | 17.78° C | 77% | 1009.2 hPa | 0 mm | - | - | - |
| 1778071344 | 17.78° C | 77% | 1009.2 hPa | 0 mm | - | - | - |
| 1778070143 | 18.33° C | 74% | 1009.7 hPa | 0 mm | - | - | - |
* Rain latest hour (hover to see other rain measurements)
** Current wind speed in m/s (hover to see current wind gust speed)